• METAR

    LHBP Budapest Liszt Ferenc repülőtér METAR

    LHBP 240200Z 07002KT 0800 R31L/0400D R31R/P2000N FZFG FEW002 M07/M08 Q1031 TEMPO 0300 FZFG TEMPO FM0300 VV001

    QNH légnyomás:1031hpa
    Hőmérséklet/temperature: -7°C
    Harmatpont/Dew Point Temp: -8°C

    LHDC Debreceni repülőtér METAR

    LHDC 240154Z AUTO 16003KT 2600 BR NCD M04/M05 Q1032

    QNH légnyomás:1032hpa
    Hőmérskélet/temperature: -4°C
    Harmatpont/Dew Point Temp: -5°C

    LHPR Győr-pér repülőtér METAR

    LHPR 240145Z AUTO 11006KT 9000 NCD M05/M06 Q1029

    QNH légnyomás:1029hpa
    Hőmérskélet/temperature: -5°C
    Harmatpont/Dew Point Temp: -6°C

    lhsm Sármellék repülőtér METAR

    LHSM 240145Z AUTO 16005KT 3300 BR OVC001 M02/M02 Q1030

    QNH légnyomás:1030hpa
    Hőmérskélet/temperature: -2°C
    Harmatpont/Dew Point Temp: -2°C

    lhpp Pécs-pogány repülőtér METAR

    LHPP 231745Z 34001KT 0100 FZFG VV002 M05/M05 Q1033

    QNH légnyomás:1033hpa
    Hőmérskélet/temperature: -5°C
    Harmatpont/Dew Point Temp: -5°C

    LHKE Kecskemét repülőtér METAR

    LHKE 240145Z 00000KT 0100 FZFG BKN003 M06/M07 Q1031 R12/01//95 NOSIG RMK RED

    QNH légnyomás:1031hpa
    Hőmérskélet/temperature: -6°C
    Harmatpont/Dew Point Temp: -7°C

    LHSN Szolnok repülőtér METAR

    LHSN 240145Z 12002KT 0100 R20/0275D FZFG VV001 M06/M06 Q1031 NOSIG RMK RED

    QNH légnyomás:1031hpa
    Hőmérskélet/temperature: 20°C
    Harmatpont/Dew Point Temp: 2°C

    LHUD szeged repülőtér METAR

    LHUD 032345Z 35004KT CAVOK 18/13 Q1019

    QNH légnyomás:1019hpa
    Hőmérskélet/temperature: 18°C
    Harmatpont/Dew Point Temp: 13°C

  • TÉRKÉPEK

    Felhőkép

    Széltérkép

    Hőtérkép

    radarkép

    map

    map

  • Műholdképek

    Magyarország műholdkép

    Europa műholdkép

    Europa szinoptikus térkép

  • ELTE ELŐREJELZÉS (2 NAP LHBP)

    2 napos légnyomás előrejelzés Budapest LHBP

    2 napos szél előrejelzés Budapest LHBP

    2 napos termik trigger előrejelzés Budapest LHBP

    2 napos felhőzet előrejelzés Budapest LHBP

    2 napos thermal index profile előrejelzés Budapest LHBP

    2 napos átlag emelés előrejelzés Budapest LHBP

    2 napos felhő alap előrejelzés Budapest LHBP

    2 napos hőmérséklet advekció előrejelzés Budapest LHBP

  • VILLÁMRADAR

  • ELŐREJELZÉS

  • WINDFINDER ELŐREJELZÉS

  • RIASZTÁS - VÉSZJELZÉS

Repülésmeteorológia, aktuális időjárási helyzet és előrejelzés

Repülésmeteorológia, várható időjárás jelentések, előrejelzések és riasztások. METAR, TAF adatok, aktuális időjárás helyzetek és térképek.

A meteorológia kialakulásában és fejlődésében kiemelt szerep jutott a repülésnek, illetve a repülés technikai fejlődésének. A repülésmeteorológia elsődlegesen a repülés biztonságát, másodlagosan a repülés gazdaságosságát hivatott szolgálni. Eleinte a katonai repülőgépeknek, később a polgári repülésnek, ma már a sportrepülő pilótáknak, és a mezőgazdasági pilótáknak is egyaránt szükségük van a naprakész meteorológiai információkra.

Repülésmeteorológia oldalunkon összegyűjtöttük a legnépszerűbb és legjobb időjárás oldalak hivatkozásait, hogy repülés előtt vagy akár közben minden fontos forrást egyszerűen és gyorsan megtalálj. Magyarország várható időjárása, légállapoti diagramok, termik előrejelzés, METAR adatok, vészjelzések és figyelmeztetések. A képernyő szélén közvetlenül pedig pozíciód aktuális időjárási paramétereit is megtalálod.

JOGI NYILATKOZAT

Az oldal használatával a látogató elfogadja az alábbi felhasználási feltételeket:

Az oldalon feltüntetett repülésmeteorológia információkat mindenki csak saját felelősségre használhatja. A feltüntetett külső forrásokból származó információk pontosságáért és tartalmáért, valamint az esetlegesen ebből adódó bármilyen káresemény kapcsán a FLYTIME.HU nem vállal felelősséget!